createdAt,value
2022-09-18T00:00:17.367Z,0.00
2022-09-18T00:00:47.871Z,0.00
2022-09-18T00:01:18.489Z,0.00
2022-09-18T00:01:49.072Z,0.00
2022-09-18T00:02:19.925Z,0.00
2022-09-18T00:02:50.505Z,0.00
2022-09-18T00:03:21.256Z,0.00
2022-09-18T00:03:51.759Z,0.00
2022-09-18T00:04:22.685Z,0.00
2022-09-18T00:04:53.676Z,0.00
2022-09-18T00:05:24.605Z,0.00
2022-09-18T00:05:55.522Z,0.00
2022-09-18T00:06:26.723Z,0.00
2022-09-18T00:06:57.208Z,0.00
2022-09-18T00:07:28.136Z,0.00
2022-09-18T00:07:59.048Z,0.00
2022-09-18T00:08:30.036Z,0.00
2022-09-18T00:09:01.060Z,0.00
2022-09-18T00:09:31.708Z,0.00
2022-09-18T00:10:02.201Z,0.00
2022-09-18T00:10:33.124Z,0.00
2022-09-18T00:11:04.065Z,0.00
2022-09-18T00:11:34.997Z,0.00
2022-09-18T00:12:05.999Z,0.00
2022-09-18T00:12:37.115Z,0.00
2022-09-18T00:13:07.603Z,0.00
2022-09-18T00:13:38.597Z,0.00
2022-09-18T00:14:09.617Z,0.00
2022-09-18T00:14:40.038Z,0.00
2022-09-18T00:15:11.034Z,0.00
2022-09-18T00:15:42.241Z,0.00
2022-09-18T00:16:12.890Z,0.00
2022-09-18T00:16:43.591Z,0.00
2022-09-18T00:17:14.182Z,0.00
2022-09-18T00:17:45.164Z,0.00
2022-09-18T00:18:16.160Z,0.00
2022-09-18T00:18:47.272Z,0.00
2022-09-18T00:19:17.745Z,0.00
2022-09-18T00:19:48.734Z,0.00
2022-09-18T00:20:19.653Z,0.00
2022-09-18T00:20:50.562Z,0.00
2022-09-18T00:21:21.485Z,0.00
2022-09-18T00:21:52.603Z,0.00
2022-09-18T00:22:23.086Z,0.00
2022-09-18T00:22:54.070Z,0.00
2022-09-18T00:23:24.987Z,0.00
2022-09-18T00:23:55.898Z,0.00
2022-09-18T00:24:26.867Z,0.00
2022-09-18T00:24:58.014Z,0.00
2022-09-18T00:25:28.514Z,0.00
2022-09-18T00:25:59.420Z,0.00
2022-09-18T00:26:30.411Z,0.00
2022-09-18T00:27:01.329Z,0.00
2022-09-18T00:27:32.237Z,0.00
2022-09-18T00:28:03.420Z,0.00
2022-09-18T00:28:33.924Z,0.00
2022-09-18T00:29:04.387Z,0.00
2022-09-18T00:29:35.371Z,0.00
2022-09-18T00:30:06.364Z,0.00
2022-09-18T00:30:37.285Z,0.00
2022-09-18T00:31:08.494Z,0.00
2022-09-18T00:31:39.096Z,0.00
2022-09-18T00:32:09.991Z,0.00
2022-09-18T00:32:40.397Z,0.00
2022-09-18T00:33:11.319Z,0.00
2022-09-18T00:33:42.312Z,0.00
2022-09-18T00:34:13.391Z,0.00
2022-09-18T00:34:43.864Z,0.00
2022-09-18T00:35:14.846Z,0.00
2022-09-18T00:35:45.752Z,0.00
2022-09-18T00:36:16.680Z,0.00
2022-09-18T00:36:47.670Z,0.00
2022-09-18T00:37:18.358Z,0.00
2022-09-18T00:37:48.852Z,0.00
2022-09-18T00:38:19.335Z,0.00
2022-09-18T00:38:50.336Z,0.00
2022-09-18T00:39:20.829Z,0.00
2022-09-18T00:39:51.879Z,0.00
2022-09-18T00:40:22.643Z,0.00
2022-09-18T00:40:52.931Z,0.00
2022-09-18T00:41:23.850Z,0.00
2022-09-18T00:41:54.766Z,0.00
2022-09-18T00:42:25.674Z,0.00
2022-09-18T00:42:56.588Z,0.00
2022-09-18T00:43:27.698Z,0.00
2022-09-18T00:43:58.148Z,0.00
2022-09-18T00:44:29.058Z,0.00
2022-09-18T00:45:00.016Z,0.00
2022-09-18T00:45:30.945Z,0.00
2022-09-18T00:46:01.848Z,0.00
2022-09-18T00:46:33.093Z,0.00
2022-09-18T00:47:03.633Z,0.00
2022-09-18T00:47:34.737Z,0.00
2022-09-18T00:48:05.200Z,0.00
2022-09-18T00:48:36.189Z,0.00
2022-09-18T00:49:07.159Z,0.00
2022-09-18T00:49:38.272Z,0.00
2022-09-18T00:50:08.760Z,0.00
2022-09-18T00:50:39.694Z,0.00
2022-09-18T00:51:10.607Z,0.00
2022-09-18T00:51:41.533Z,0.00
2022-09-18T00:52:12.444Z,0.00
2022-09-18T00:52:43.639Z,0.00
2022-09-18T00:53:14.123Z,0.00
2022-09-18T00:53:45.043Z,0.00
2022-09-18T00:54:16.028Z,0.00
2022-09-18T00:54:47.019Z,0.00
2022-09-18T00:55:17.504Z,0.00
2022-09-18T00:55:48.684Z,0.00
2022-09-18T00:56:19.164Z,0.00
2022-09-18T00:56:50.082Z,0.00
2022-09-18T00:57:21.007Z,0.00
2022-09-18T00:57:51.925Z,0.00
2022-09-18T00:58:22.902Z,0.00
2022-09-18T00:58:54.080Z,0.00
2022-09-18T00:59:24.563Z,0.00
2022-09-18T00:59:55.487Z,0.00
2022-09-18T01:00:26.443Z,0.00
2022-09-18T01:00:57.507Z,0.00
2022-09-18T01:01:28.339Z,0.00
2022-09-18T01:01:59.139Z,0.00
2022-09-18T01:02:29.692Z,0.00
2022-09-18T01:03:00.261Z,0.00
2022-09-18T01:03:30.675Z,0.00
2022-09-18T01:04:01.673Z,0.00
2022-09-18T01:04:32.667Z,0.00
2022-09-18T01:05:03.345Z,0.00
2022-09-18T01:05:33.810Z,0.00
2022-09-18T01:06:04.728Z,0.00
2022-09-18T01:06:35.704Z,0.00
2022-09-18T01:07:06.618Z,0.00
2022-09-18T01:07:37.594Z,0.00
2022-09-18T01:08:08.723Z,0.00
2022-09-18T01:08:43.796Z,0.00
2022-09-18T01:09:11.196Z,0.00
2022-09-18T01:09:40.621Z,0.00
2022-09-18T01:10:11.537Z,0.00
2022-09-18T01:10:42.727Z,0.00
2022-09-18T01:11:13.149Z,0.00
2022-09-18T01:11:44.139Z,0.00
2022-09-18T01:12:15.050Z,0.00
2022-09-18T01:12:45.971Z,0.00
2022-09-18T01:13:16.875Z,0.00
2022-09-18T01:13:48.061Z,0.00
2022-09-18T01:14:18.548Z,0.00
2022-09-18T01:14:49.538Z,0.00
2022-09-18T01:15:20.526Z,0.00
2022-09-18T01:15:51.584Z,0.00
2022-09-18T01:16:22.136Z,0.00
2022-09-18T01:16:52.874Z,0.00
2022-09-18T01:17:23.360Z,0.00
2022-09-18T01:17:54.324Z,0.00
2022-09-18T01:18:25.449Z,0.00
2022-09-18T01:18:55.874Z,0.00
2022-09-18T01:19:26.857Z,0.00
2022-09-18T01:19:57.972Z,0.00
2022-09-18T01:20:28.455Z,0.00
2022-09-18T01:20:59.423Z,0.00
2022-09-18T01:21:30.421Z,0.00
2022-09-18T01:22:01.386Z,0.00
2022-09-18T01:22:32.299Z,0.00
2022-09-18T01:23:03.492Z,0.00
2022-09-18T01:23:33.986Z,0.00
2022-09-18T01:24:04.879Z,0.00
2022-09-18T01:24:35.845Z,0.00
2022-09-18T01:25:06.767Z,0.00
2022-09-18T01:25:37.768Z,0.00
2022-09-18T01:26:08.938Z,0.00
2022-09-18T01:26:39.427Z,0.00
2022-09-18T01:27:10.347Z,0.00
2022-09-18T01:27:41.261Z,0.00
2022-09-18T01:28:12.201Z,0.00
2022-09-18T01:28:43.118Z,0.00
2022-09-18T01:29:14.227Z,0.00
2022-09-18T01:29:44.723Z,0.00
2022-09-18T01:30:15.643Z,0.00
2022-09-18T01:30:46.635Z,0.00
2022-09-18T01:31:17.706Z,0.00
2022-09-18T01:31:48.282Z,0.00
2022-09-18T01:32:18.937Z,0.00
2022-09-18T01:32:49.435Z,0.00
2022-09-18T01:33:20.349Z,0.00
2022-09-18T01:33:51.383Z,0.00
2022-09-18T01:34:21.869Z,0.00
2022-09-18T01:34:52.857Z,0.00
2022-09-18T01:35:40.578Z,0.00
2022-09-18T01:35:55.414Z,0.00
2022-09-18T01:36:24.910Z,0.00
2022-09-18T01:36:55.838Z,0.00
2022-09-18T01:37:26.749Z,0.00
2022-09-18T01:37:57.844Z,0.00
2022-09-18T01:38:28.329Z,0.00
2022-09-18T01:38:59.293Z,0.00
2022-09-18T01:39:30.294Z,0.00
2022-09-18T01:40:01.293Z,0.00
2022-09-18T01:40:31.834Z,0.00
2022-09-18T01:41:02.564Z,0.00
2022-09-18T01:41:33.062Z,0.00
2022-09-18T01:42:03.983Z,0.00
2022-09-18T01:42:34.962Z,0.00
2022-09-18T01:43:05.905Z,0.00
2022-09-18T01:43:36.816Z,0.00
2022-09-18T01:44:08.010Z,0.00
2022-09-18T01:44:38.480Z,0.00
2022-09-18T01:45:09.402Z,0.00
2022-09-18T01:45:40.318Z,0.00
2022-09-18T01:46:11.289Z,0.00
2022-09-18T01:46:41.877Z,0.00
2022-09-18T01:47:12.555Z,0.00
2022-09-18T01:47:43.049Z,0.00
2022-09-18T01:48:14.033Z,0.00
2022-09-18T01:48:44.950Z,0.00
2022-09-18T01:49:16.030Z,0.00
2022-09-18T01:49:46.453Z,0.00
2022-09-18T01:50:17.553Z,0.00
2022-09-18T01:50:48.046Z,0.00
2022-09-18T01:51:18.529Z,0.00
2022-09-18T01:51:49.491Z,0.00
2022-09-18T01:52:20.477Z,0.00
2022-09-18T01:52:50.968Z,0.00
2022-09-18T01:53:22.158Z,0.00
2022-09-18T01:53:52.653Z,0.00
2022-09-18T01:54:23.124Z,0.00
2022-09-18T01:54:54.042Z,0.00
2022-09-18T01:55:24.961Z,0.00
2022-09-18T01:55:55.891Z,0.00
2022-09-18T01:56:27.017Z,0.00
2022-09-18T01:56:57.518Z,0.00
2022-09-18T01:57:28.438Z,0.00
2022-09-18T01:57:59.361Z,0.00
2022-09-18T01:58:30.265Z,0.00
2022-09-18T01:59:01.247Z,0.00
2022-09-18T01:59:31.980Z,0.00
2022-09-18T02:00:02.469Z,0.00
2022-09-18T02:00:33.459Z,0.00
2022-09-18T02:01:04.449Z,0.00
2022-09-18T02:01:35.531Z,0.00
2022-09-18T02:02:06.225Z,0.00
2022-09-18T02:02:37.141Z,0.00
2022-09-18T02:03:07.362Z,0.00
2022-09-18T02:03:38.277Z,0.00
2022-09-18T02:04:09.270Z,0.00
2022-09-18T02:04:40.309Z,0.00
2022-09-18T02:05:10.738Z,0.00
2022-09-18T02:05:41.936Z,0.00
2022-09-18T02:06:12.430Z,0.00
2022-09-18T02:06:43.421Z,0.00
2022-09-18T02:07:14.456Z,0.00
2022-09-18T02:07:44.949Z,0.00
2022-09-18T02:08:15.857Z,0.00
2022-09-18T02:08:47.041Z,0.00
2022-09-18T02:09:17.532Z,0.00
2022-09-18T02:09:48.446Z,0.00
2022-09-18T02:10:19.429Z,0.00
2022-09-18T02:10:50.416Z,0.00
2022-09-18T02:11:21.331Z,0.00
2022-09-18T02:11:52.511Z,0.00
2022-09-18T02:12:22.982Z,0.00
2022-09-18T02:12:53.897Z,0.00
2022-09-18T02:13:24.813Z,0.00
2022-09-18T02:13:55.747Z,0.00
2022-09-18T02:14:26.751Z,0.00
2022-09-18T02:14:57.864Z,0.00
2022-09-18T02:15:28.340Z,0.00
2022-09-18T02:15:59.288Z,0.00
2022-09-18T02:16:30.425Z,0.00
2022-09-18T02:17:00.890Z,0.00
2022-09-18T02:17:31.909Z,0.00
2022-09-18T02:18:03.020Z,0.00
2022-09-18T02:18:33.516Z,0.00
2022-09-18T02:19:04.413Z,0.00
2022-09-18T02:19:35.331Z,0.00
2022-09-18T02:20:06.449Z,0.00
2022-09-18T02:20:36.958Z,0.00
2022-09-18T02:21:08.088Z,0.00
2022-09-18T02:21:38.574Z,0.00
2022-09-18T02:22:09.066Z,0.00
2022-09-18T02:22:40.045Z,0.00
2022-09-18T02:23:10.954Z,0.00
2022-09-18T02:23:41.870Z,0.00
2022-09-18T02:24:12.976Z,0.00
2022-09-18T02:24:43.476Z,0.00
2022-09-18T02:25:14.390Z,0.00
2022-09-18T02:25:45.355Z,0.00
2022-09-18T02:26:16.274Z,0.00
2022-09-18T02:26:47.191Z,0.00
2022-09-18T02:27:18.358Z,0.00
2022-09-18T02:27:48.884Z,0.00
2022-09-18T02:28:19.284Z,0.00
2022-09-18T02:28:50.210Z,0.00
2022-09-18T02:29:21.204Z,0.00
2022-09-18T02:29:52.195Z,0.00
2022-09-18T02:30:23.311Z,0.00
2022-09-18T02:30:53.857Z,0.00
2022-09-18T02:31:24.484Z,0.00
2022-09-18T02:31:55.009Z,0.00
2022-09-18T02:32:25.490Z,0.00
2022-09-18T02:32:56.451Z,0.00
2022-09-18T02:33:27.579Z,0.00
2022-09-18T02:33:58.097Z,0.00
2022-09-18T02:34:29.009Z,0.00
2022-09-18T02:35:03.179Z,0.00
2022-09-18T02:35:30.758Z,0.00
2022-09-18T02:36:01.181Z,0.00
2022-09-18T02:36:32.262Z,0.00
2022-09-18T02:37:02.739Z,0.00
2022-09-18T02:37:33.711Z,0.00
2022-09-18T02:38:04.693Z,0.00
2022-09-18T02:38:35.597Z,0.00
2022-09-18T02:39:06.513Z,0.00
2022-09-18T02:39:37.641Z,0.00
2022-09-18T02:40:08.151Z,0.00
2022-09-18T02:40:38.956Z,0.00
2022-09-18T02:41:09.496Z,0.00
2022-09-18T02:41:40.411Z,0.00
2022-09-18T02:42:11.331Z,0.00
2022-09-18T02:42:42.448Z,0.00
2022-09-18T02:43:12.926Z,0.00
2022-09-18T02:43:43.855Z,0.00
2022-09-18T02:44:14.791Z,0.00
2022-09-18T02:44:45.709Z,0.00
2022-09-18T02:45:16.707Z,0.00
2022-09-18T02:45:47.834Z,0.00
2022-09-18T02:46:18.388Z,0.00
2022-09-18T02:46:48.891Z,0.00
2022-09-18T02:47:19.439Z,0.00
2022-09-18T02:47:50.435Z,0.00
2022-09-18T02:48:21.399Z,0.00
2022-09-18T02:48:52.592Z,0.00
2022-09-18T02:49:23.084Z,0.00
2022-09-18T02:49:53.999Z,0.00
2022-09-18T02:50:24.917Z,0.00
2022-09-18T02:50:56.031Z,0.00
2022-09-18T02:51:26.453Z,0.00
2022-09-18T02:51:57.575Z,0.00
2022-09-18T02:52:28.055Z,0.00
2022-09-18T02:52:58.957Z,0.00
2022-09-18T02:53:29.909Z,0.00
2022-09-18T02:54:00.866Z,0.00
2022-09-18T02:54:31.812Z,0.00
2022-09-18T02:55:02.986Z,0.00
2022-09-18T02:55:33.489Z,0.00
2022-09-18T02:56:04.457Z,0.00
2022-09-18T02:56:35.371Z,0.00
2022-09-18T02:57:07.005Z,0.00
2022-09-18T02:57:36.975Z,0.00
2022-09-18T02:58:08.157Z,0.00
2022-09-18T02:58:38.680Z,0.00
2022-09-18T02:59:09.100Z,0.00
2022-09-18T02:59:40.019Z,0.00
2022-09-18T03:00:10.937Z,0.00
2022-09-18T03:00:41.929Z,0.00
2022-09-18T03:01:13.147Z,0.00
2022-09-18T03:01:43.814Z,0.00
2022-09-18T03:02:14.716Z,0.00
2022-09-18T03:02:45.442Z,0.00
2022-09-18T03:03:15.894Z,0.00
2022-09-18T03:03:46.866Z,0.00
2022-09-18T03:04:17.997Z,0.00
2022-09-18T03:04:48.483Z,0.00
2022-09-18T03:05:19.399Z,0.00
2022-09-18T03:05:50.323Z,0.00
2022-09-18T03:06:21.369Z,0.00
2022-09-18T03:06:52.080Z,0.00
2022-09-18T03:07:23.194Z,0.00
2022-09-18T03:07:53.678Z,0.00
2022-09-18T03:08:24.601Z,0.00
2022-09-18T03:08:55.585Z,0.00
2022-09-18T03:09:26.484Z,0.00
2022-09-18T03:09:57.399Z,0.00
2022-09-18T03:10:28.528Z,0.00
2022-09-18T03:10:59.025Z,0.00
2022-09-18T03:11:29.940Z,0.00
2022-09-18T03:12:00.962Z,0.00
2022-09-18T03:12:31.381Z,0.00
2022-09-18T03:13:02.296Z,0.00
2022-09-18T03:13:33.481Z,0.00
2022-09-18T03:14:03.951Z,0.00
2022-09-18T03:14:34.864Z,0.00
2022-09-18T03:15:05.796Z,0.00
2022-09-18T03:15:36.706Z,0.00
2022-09-18T03:16:07.698Z,0.00
2022-09-18T03:16:38.401Z,0.00
2022-09-18T03:17:08.912Z,0.00
2022-09-18T03:17:39.814Z,0.00
2022-09-18T03:18:10.812Z,0.00
2022-09-18T03:18:41.790Z,0.00
2022-09-18T03:19:12.797Z,0.00
2022-09-18T03:19:43.421Z,0.00
2022-09-18T03:20:13.913Z,0.00
2022-09-18T03:20:44.853Z,0.00
2022-09-18T03:21:15.769Z,0.00
2022-09-18T03:21:46.793Z,0.00
2022-09-18T03:22:17.519Z,0.00
2022-09-18T03:22:48.635Z,0.00
2022-09-18T03:23:19.125Z,0.00
2022-09-18T03:23:50.129Z,0.00
2022-09-18T03:24:21.095Z,0.00
2022-09-18T03:24:52.090Z,0.00
2022-09-18T03:25:22.984Z,0.00
2022-09-18T03:25:54.109Z,0.00
2022-09-18T03:26:24.626Z,0.00
2022-09-18T03:26:55.536Z,0.00
2022-09-18T03:27:26.448Z,0.00
2022-09-18T03:27:57.438Z,0.00
2022-09-18T03:28:28.365Z,0.00
2022-09-18T03:28:59.473Z,0.00
2022-09-18T03:29:29.953Z,0.00
2022-09-18T03:30:00.866Z,0.00
2022-09-18T03:30:31.756Z,0.00
2022-09-18T03:31:02.762Z,0.00
2022-09-18T03:31:33.245Z,0.00
2022-09-18T03:32:04.000Z,0.00
2022-09-18T03:32:34.490Z,0.00
2022-09-18T03:33:05.477Z,0.00
2022-09-18T03:33:36.476Z,0.00
2022-09-18T03:34:07.390Z,0.00
2022-09-18T03:34:38.351Z,0.00
2022-09-18T03:35:09.465Z,0.00
2022-09-18T03:35:39.949Z,0.00
2022-09-18T03:36:10.867Z,0.00
2022-09-18T03:36:41.858Z,0.00
2022-09-18T03:37:12.970Z,0.00
2022-09-18T03:37:43.397Z,0.00
2022-09-18T03:38:14.513Z,0.00
2022-09-18T03:38:45.019Z,0.00
2022-09-18T03:39:16.412Z,0.00
2022-09-18T03:39:46.929Z,0.00
2022-09-18T03:40:17.977Z,0.00
2022-09-18T03:40:48.459Z,0.00
2022-09-18T03:41:19.580Z,0.00
2022-09-18T03:41:50.076Z,0.00
2022-09-18T03:42:20.990Z,0.00
2022-09-18T03:42:51.993Z,0.00
2022-09-18T03:43:22.918Z,0.00
2022-09-18T03:43:53.839Z,0.00
2022-09-18T03:44:24.945Z,0.00
2022-09-18T03:44:55.423Z,0.00
2022-09-18T03:45:26.355Z,0.00
2022-09-18T03:45:57.261Z,0.00
2022-09-18T03:46:28.357Z,0.00
2022-09-18T03:46:59.211Z,0.00
2022-09-18T03:47:34.296Z,0.00
2022-09-18T03:48:01.588Z,0.00
2022-09-18T03:48:31.020Z,0.00
2022-09-18T03:49:01.938Z,0.00
2022-09-18T03:49:32.853Z,0.00
2022-09-18T03:50:04.012Z,0.00
2022-09-18T03:50:34.421Z,0.00
2022-09-18T03:51:05.340Z,0.00
2022-09-18T03:51:36.275Z,0.00
2022-09-18T03:52:07.191Z,0.00
2022-09-18T03:52:38.217Z,0.00
2022-09-18T03:53:08.888Z,0.00
2022-09-18T03:53:39.370Z,0.00
2022-09-18T03:54:10.287Z,0.00
2022-09-18T03:54:41.274Z,0.00
2022-09-18T03:55:12.225Z,0.00
2022-09-18T03:55:43.118Z,0.00
2022-09-18T03:56:14.220Z,0.00
2022-09-18T03:56:44.724Z,0.00
2022-09-18T03:57:15.215Z,0.00
2022-09-18T03:57:46.206Z,0.00
2022-09-18T03:58:17.125Z,0.00
2022-09-18T03:58:48.048Z,0.00
2022-09-18T03:59:19.166Z,0.00
2022-09-18T03:59:49.662Z,0.00
2022-09-18T04:00:20.623Z,0.00
2022-09-18T04:00:51.557Z,0.00
2022-09-18T04:01:22.621Z,0.00
2022-09-18T04:01:53.227Z,0.00
2022-09-18T04:02:23.877Z,0.00
2022-09-18T04:02:54.457Z,0.00
2022-09-18T04:03:24.914Z,0.00
2022-09-18T04:03:55.826Z,0.00
2022-09-18T04:04:26.832Z,0.00
2022-09-18T04:04:57.765Z,0.00
2022-09-18T04:05:28.934Z,0.00
2022-09-18T04:05:59.440Z,0.00
2022-09-18T04:06:30.367Z,0.00
2022-09-18T04:07:01.375Z,0.00
2022-09-18T04:07:32.289Z,0.00
2022-09-18T04:08:03.397Z,0.00
2022-09-18T04:08:34.002Z,0.00
2022-09-18T04:09:04.496Z,0.00
2022-09-18T04:09:35.424Z,0.00
2022-09-18T04:10:06.350Z,0.00
2022-09-18T04:10:37.307Z,0.00
2022-09-18T04:11:08.231Z,0.00
2022-09-18T04:11:39.436Z,0.00
2022-09-18T04:12:09.925Z,0.00
2022-09-18T04:12:40.856Z,0.00
2022-09-18T04:13:11.853Z,0.00
2022-09-18T04:13:42.837Z,0.00
2022-09-18T04:14:13.760Z,0.00
2022-09-18T04:14:44.887Z,0.00
2022-09-18T04:15:15.375Z,0.00
2022-09-18T04:15:46.328Z,0.00
2022-09-18T04:16:16.919Z,0.00
2022-09-18T04:16:47.363Z,0.00
2022-09-18T04:17:18.359Z,0.00
2022-09-18T04:17:49.535Z,0.00
2022-09-18T04:18:20.033Z,0.00
2022-09-18T04:18:50.525Z,0.00
2022-09-18T04:19:21.440Z,0.00
2022-09-18T04:19:53.818Z,0.00
2022-09-18T04:20:23.080Z,0.00
2022-09-18T04:20:54.241Z,0.00
2022-09-18T04:21:24.717Z,0.00
2022-09-18T04:21:55.644Z,0.00
2022-09-18T04:22:26.631Z,0.00
2022-09-18T04:22:57.552Z,0.00
2022-09-18T04:23:28.653Z,0.00
2022-09-18T04:23:59.327Z,0.00
2022-09-18T04:24:29.842Z,0.00
2022-09-18T04:25:00.758Z,0.00
2022-09-18T04:25:31.755Z,0.00
2022-09-18T04:26:02.728Z,0.00
2022-09-18T04:26:33.640Z,0.00
2022-09-18T04:27:04.755Z,0.00
2022-09-18T04:27:35.248Z,0.00
2022-09-18T04:28:06.241Z,0.00
2022-09-18T04:28:37.236Z,0.00
2022-09-18T04:29:08.236Z,0.00
2022-09-18T04:29:39.226Z,0.00
2022-09-18T04:30:10.341Z,0.00
2022-09-18T04:30:40.838Z,0.00
2022-09-18T04:31:11.880Z,0.00
2022-09-18T04:31:42.758Z,0.00
2022-09-18T04:32:13.272Z,0.00
2022-09-18T04:32:44.185Z,0.00
2022-09-18T04:33:16.180Z,0.00
2022-09-18T04:33:45.914Z,0.00
2022-09-18T04:34:16.325Z,0.00
2022-09-18T04:34:47.252Z,0.00
2022-09-18T04:35:18.171Z,0.00
2022-09-18T04:35:49.206Z,0.00
2022-09-18T04:36:19.826Z,0.00
2022-09-18T04:36:50.240Z,0.00
2022-09-18T04:37:21.230Z,0.00
2022-09-18T04:37:52.153Z,0.00
2022-09-18T04:38:23.075Z,0.00
2022-09-18T04:38:54.173Z,0.00
2022-09-18T04:39:24.749Z,0.00
2022-09-18T04:39:55.293Z,0.00
2022-09-18T04:40:25.941Z,0.00
2022-09-18T04:40:56.565Z,0.00
2022-09-18T04:41:27.523Z,0.00
2022-09-18T04:41:58.444Z,0.00
2022-09-18T04:42:29.640Z,0.00
2022-09-18T04:43:00.133Z,0.00
2022-09-18T04:43:31.070Z,0.00
2022-09-18T04:44:01.988Z,0.00
2022-09-18T04:44:32.986Z,0.00
2022-09-18T04:45:03.906Z,0.00
2022-09-18T04:45:34.995Z,0.00
2022-09-18T04:46:05.565Z,0.00
2022-09-18T04:46:36.151Z,0.00
2022-09-18T04:47:06.587Z,1.00
2022-09-18T04:47:37.461Z,1.00
2022-09-18T04:48:08.438Z,0.00
2022-09-18T04:48:39.625Z,0.00
2022-09-18T04:49:10.119Z,0.00
2022-09-18T04:49:41.104Z,0.00
2022-09-18T04:50:12.086Z,0.00
2022-09-18T04:50:43.006Z,0.00
2022-09-18T04:51:13.997Z,0.00
2022-09-18T04:51:45.184Z,0.00
2022-09-18T04:52:15.629Z,1.00
2022-09-18T04:52:46.559Z,0.00
2022-09-18T04:53:17.475Z,0.00
2022-09-18T04:53:48.386Z,0.00
2022-09-18T04:54:19.381Z,1.00
2022-09-18T04:54:50.022Z,1.00
2022-09-18T04:55:20.509Z,0.00
2022-09-18T04:55:51.441Z,1.00
2022-09-18T04:56:22.386Z,1.00
2022-09-18T04:56:53.317Z,1.00
2022-09-18T04:57:24.173Z,1.00
2022-09-18T04:57:55.229Z,1.00
2022-09-18T04:58:25.656Z,1.00
2022-09-18T04:58:56.515Z,1.00
2022-09-18T04:59:27.431Z,1.00
2022-09-18T04:59:58.296Z,1.00
2022-09-18T05:00:29.190Z,2.00
2022-09-18T05:01:00.468Z,1.00
2022-09-18T05:01:31.169Z,1.00
2022-09-18T05:02:01.689Z,1.00
2022-09-18T05:02:32.205Z,1.00
2022-09-18T05:03:03.070Z,1.00
2022-09-18T05:03:34.043Z,1.00
2022-09-18T05:04:05.108Z,1.00
2022-09-18T05:04:35.553Z,1.00
2022-09-18T05:05:06.420Z,1.00
2022-09-18T05:05:37.297Z,1.00
2022-09-18T05:06:08.232Z,1.00
2022-09-18T05:06:39.156Z,1.00
2022-09-18T05:07:10.215Z,1.00
2022-09-18T05:07:40.649Z,1.00
2022-09-18T05:08:11.586Z,2.00
2022-09-18T05:08:42.519Z,2.00
2022-09-18T05:09:13.476Z,2.00
2022-09-18T05:09:44.459Z,2.00
2022-09-18T05:10:15.117Z,2.00
2022-09-18T05:10:45.533Z,2.00
2022-09-18T05:11:16.480Z,3.00
2022-09-18T05:11:47.409Z,3.00
2022-09-18T05:12:18.284Z,2.00
2022-09-18T05:12:49.223Z,3.00
2022-09-18T05:13:20.381Z,3.00
2022-09-18T05:13:50.787Z,3.00
2022-09-18T05:14:21.652Z,3.00
2022-09-18T05:14:52.514Z,3.00
2022-09-18T05:15:23.416Z,3.00
2022-09-18T05:15:54.367Z,3.00
2022-09-18T05:16:25.517Z,3.00
2022-09-18T05:16:55.991Z,3.00
2022-09-18T05:17:26.855Z,3.00
2022-09-18T05:17:57.722Z,4.00
2022-09-18T05:18:28.652Z,4.00
2022-09-18T05:18:59.589Z,4.00
2022-09-18T05:19:30.703Z,4.00
2022-09-18T05:20:01.146Z,4.00
2022-09-18T05:20:32.091Z,4.00
2022-09-18T05:21:03.017Z,4.00
2022-09-18T05:21:33.881Z,4.00
2022-09-18T05:22:04.840Z,4.00
2022-09-18T05:22:35.927Z,4.00
2022-09-18T05:23:06.373Z,4.00
2022-09-18T05:23:37.309Z,4.00
2022-09-18T05:24:08.234Z,4.00
2022-09-18T05:24:39.097Z,4.00
2022-09-18T05:25:10.098Z,4.00
2022-09-18T05:25:40.722Z,4.00
2022-09-18T05:26:11.160Z,4.00
2022-09-18T05:26:42.002Z,3.00
2022-09-18T05:27:12.919Z,4.00
2022-09-18T05:27:43.759Z,4.00
2022-09-18T05:28:14.631Z,4.00
2022-09-18T05:28:45.779Z,4.00
2022-09-18T05:29:16.238Z,5.00
2022-09-18T05:29:47.180Z,5.00
2022-09-18T05:30:18.048Z,5.00
2022-09-18T05:30:48.915Z,5.00
2022-09-18T05:31:19.968Z,6.00
2022-09-18T05:31:50.873Z,5.00
2022-09-18T05:32:21.354Z,6.00
2022-09-18T05:32:56.736Z,5.00
2022-09-18T05:33:24.135Z,5.00
2022-09-18T05:33:54.066Z,6.00
2022-09-18T05:34:25.199Z,6.00
2022-09-18T05:34:55.642Z,6.00
2022-09-18T05:35:26.580Z,6.00
2022-09-18T05:35:57.523Z,6.00
2022-09-18T05:36:28.394Z,6.00
2022-09-18T05:36:59.269Z,6.00
2022-09-18T05:37:30.382Z,6.00
2022-09-18T05:38:00.719Z,6.00
2022-09-18T05:38:31.655Z,6.00
2022-09-18T05:39:02.774Z,7.00
2022-09-18T05:39:33.315Z,7.00
2022-09-18T05:40:04.400Z,8.00
2022-09-18T05:40:35.487Z,8.00
2022-09-18T05:41:05.678Z,8.00
2022-09-18T05:41:36.660Z,9.00
2022-09-18T05:42:07.603Z,8.00
2022-09-18T05:42:38.521Z,8.00
2022-09-18T05:43:09.379Z,9.00
2022-09-18T05:43:40.452Z,9.00
2022-09-18T05:44:10.889Z,8.00
2022-09-18T05:44:41.833Z,9.00
2022-09-18T05:45:12.715Z,10.00
2022-09-18T05:45:43.700Z,10.00
2022-09-18T05:46:14.642Z,10.00
2022-09-18T05:46:45.831Z,10.00
2022-09-18T05:47:16.318Z,9.00
2022-09-18T05:47:47.240Z,9.00
2022-09-18T05:48:18.104Z,8.00
2022-09-18T05:48:49.038Z,8.00
2022-09-18T05:49:19.930Z,8.00
2022-09-18T05:49:50.996Z,8.00
2022-09-18T05:50:21.441Z,8.00
2022-09-18T05:50:52.348Z,8.00
2022-09-18T05:51:23.216Z,8.00
2022-09-18T05:51:54.159Z,8.00
2022-09-18T05:52:25.091Z,8.00
2022-09-18T05:52:56.216Z,8.00
2022-09-18T05:53:26.578Z,8.00
2022-09-18T05:53:57.443Z,7.00
2022-09-18T05:54:28.375Z,7.00
2022-09-18T05:54:59.387Z,7.00
2022-09-18T05:55:31.946Z,7.00
2022-09-18T05:56:01.056Z,8.00
2022-09-18T05:56:31.486Z,9.00
2022-09-18T05:57:02.360Z,9.00
2022-09-18T05:57:33.283Z,10.00
2022-09-18T05:58:04.194Z,10.00
2022-09-18T05:58:35.070Z,11.00
2022-09-18T05:59:06.139Z,11.00
2022-09-18T05:59:36.588Z,11.00
2022-09-18T06:00:07.436Z,12.00
2022-09-18T06:00:38.297Z,13.00
2022-09-18T06:01:09.161Z,14.00
2022-09-18T06:01:43.619Z,14.00
2022-09-18T06:02:11.006Z,13.00
2022-09-18T06:02:41.992Z,14.00
2022-09-18T06:03:13.050Z,13.00
2022-09-18T06:03:43.610Z,12.00
2022-09-18T06:04:14.553Z,12.00
2022-09-18T06:04:45.677Z,11.00
2022-09-18T06:05:16.113Z,11.00
2022-09-18T06:05:47.053Z,11.00
2022-09-18T06:06:17.990Z,11.00
2022-09-18T06:06:48.869Z,11.00
2022-09-18T06:07:19.813Z,10.00
2022-09-18T06:07:50.905Z,10.00
2022-09-18T06:08:21.336Z,10.00
2022-09-18T06:08:52.260Z,9.00
2022-09-18T06:09:23.124Z,9.00
2022-09-18T06:09:53.988Z,9.00
2022-09-18T06:10:24.927Z,9.00
2022-09-18T06:10:55.993Z,9.00
2022-09-18T06:11:26.579Z,10.00
2022-09-18T06:11:56.968Z,10.00
2022-09-18T06:12:27.836Z,9.00
2022-09-18T06:12:58.767Z,9.00
2022-09-18T06:13:29.682Z,9.00
2022-09-18T06:14:00.756Z,9.00
2022-09-18T06:14:31.214Z,9.00
2022-09-18T06:15:02.140Z,9.00
2022-09-18T06:15:33.029Z,9.00
2022-09-18T06:16:03.975Z,9.00
2022-09-18T06:16:37.543Z,11.00
2022-09-18T06:17:06.795Z,12.00
2022-09-18T06:17:36.711Z,13.00
2022-09-18T06:18:07.653Z,12.00
2022-09-18T06:18:38.580Z,12.00
2022-09-18T06:19:09.463Z,12.00
2022-09-18T06:19:40.539Z,12.00
2022-09-18T06:20:10.954Z,11.00
2022-09-18T06:20:41.829Z,10.00
2022-09-18T06:21:12.771Z,10.00
2022-09-18T06:21:43.652Z,10.00
2022-09-18T06:22:14.594Z,9.00
2022-09-18T06:22:45.650Z,8.00
2022-09-18T06:23:16.099Z,7.00
2022-09-18T06:23:47.008Z,7.00
2022-09-18T06:24:17.878Z,8.00
2022-09-18T06:24:48.816Z,8.00
2022-09-18T06:25:19.754Z,8.00
2022-09-18T06:25:50.837Z,8.00
2022-09-18T06:26:21.296Z,8.00
2022-09-18T06:26:52.361Z,8.00
2022-09-18T06:27:22.796Z,9.00
2022-09-18T06:27:53.667Z,9.00
2022-09-18T06:28:24.543Z,10.00
2022-09-18T06:28:55.723Z,10.00
2022-09-18T06:29:26.091Z,10.00
2022-09-18T06:29:56.955Z,11.00
2022-09-18T06:30:27.924Z,11.00
2022-09-18T06:30:58.437Z,12.00
2022-09-18T06:31:29.394Z,13.00
2022-09-18T06:32:00.511Z,13.00
2022-09-18T06:32:30.952Z,13.00
2022-09-18T06:33:01.878Z,13.00
2022-09-18T06:33:32.826Z,13.00
2022-09-18T06:34:03.800Z,14.00
2022-09-18T06:34:38.592Z,15.00
2022-09-18T06:35:05.555Z,17.00
2022-09-18T06:35:36.022Z,17.00
2022-09-18T06:36:06.893Z,18.00
2022-09-18T06:36:37.774Z,19.00
2022-09-18T06:37:08.721Z,19.00
2022-09-18T06:37:39.660Z,20.00
2022-09-18T06:38:10.789Z,20.00
2022-09-18T06:38:41.308Z,19.00
2022-09-18T06:39:11.722Z,19.00
2022-09-18T06:39:42.662Z,19.00
2022-09-18T06:40:13.621Z,19.00
2022-09-18T06:40:44.152Z,19.00
2022-09-18T06:41:14.727Z,20.00
2022-09-18T06:41:45.159Z,21.00
2022-09-18T06:42:16.189Z,21.00
2022-09-18T06:42:46.641Z,21.00
2022-09-18T06:43:17.581Z,21.00
2022-09-18T06:43:48.453Z,22.00
2022-09-18T06:44:19.565Z,22.00
2022-09-18T06:44:49.942Z,22.00
2022-09-18T06:45:20.888Z,22.00
2022-09-18T06:45:51.826Z,22.00
2022-09-18T06:46:22.777Z,23.00
2022-09-18T06:46:53.781Z,24.00
2022-09-18T06:47:24.439Z,24.00
2022-09-18T06:47:54.884Z,25.00
2022-09-18T06:48:25.772Z,25.00
2022-09-18T06:48:56.713Z,26.00